ADDS METAR Data INFO
IDs: Format: Raw Decoded Include TAF

Data at: 0731 UTC 18 Oct 2017

KCUH 180715Z AUTO 17004KT 10SM CLR 13/06 A3010 RMK AO2 T01250062
KCUH 180655Z AUTO 17005KT 10SM CLR 13/06 A3010 RMK AO2 T01280062
KCUH 180635Z AUTO 18006KT 10SM CLR 13/07 A3010 RMK AO2 T01270065
KCUH 180615Z AUTO 18005KT 10SM CLR 12/07 A3011 RMK AO2 T01240067
KCUH 180555Z AUTO 17005KT 10SM CLR 12/07 A3012 RMK AO2 T01180070 10187 20107 402280057
KCUH 180535Z AUTO 20003KT 10SM CLR 11/07 A3012 RMK AO2 T01130068
KCUH 180515Z AUTO 18003KT 10SM CLR 11/07 A3013 RMK AO2 T01120071
KCUH 180455Z AUTO 18003KT 10SM CLR 12/07 A3013 RMK AO2 T01190070
KCUH 180435Z AUTO 00000KT 10SM CLR 13/07 A3014 RMK AO2 T01280070
KCUH 180415Z AUTO 00000KT 10SM CLR 12/07 A3014 RMK AO2 T01230071
KCUH 180355Z AUTO 18003KT 10SM CLR 12/07 A3014 RMK AO2 T01240074
KCUH 180335Z AUTO 18004KT 10SM CLR 13/08 A3013 RMK AO2 T01310075
KCUH 180315Z AUTO 18004KT 10SM CLR 13/08 A3013 RMK AO2 T01300075
KCUH 180255Z AUTO 16004KT 10SM CLR 14/08 A3013 RMK AO2 T01420078
KCUH 180235Z AUTO 18004KT 10SM CLR 13/08 A3012 RMK AO2 T01340078
KCUH 180215Z AUTO 19003KT 10SM CLR 12/08 A3012 RMK AO2 T01220081
KCUH 180155Z AUTO 17003KT 10SM CLR 13/08 A3012 RMK AO2 T01330082
KCUH 180135Z AUTO 00000KT 10SM CLR 13/09 A3012 RMK AO2 T01290086
KCUH 180115Z AUTO 00000KT 10SM CLR 13/09 A3011 RMK AO2 T01250085
KCUH 180055Z AUTO 18003KT 10SM CLR 14/09 A3011 RMK AO2 T01440085
KCUH 180035Z AUTO 16004KT 10SM CLR 16/08 A3011 RMK AO2 T01560083
KCUH 180015Z AUTO 00000KT 10SM CLR 16/09 A3011 RMK AO2 T01580085
KCUH 172355Z AUTO 17003KT 10SM CLR 19/08 A3010 RMK AO2 T01890076 10228 20189
KCUH 172335Z AUTO 17004KT 10SM CLR 20/07 A3011 RMK AO2 T01980072
KCUH 172315Z AUTO 17004KT 10SM CLR 21/07 A3011 RMK AO2 T02060069
KCUH 172255Z AUTO 18007KT 10SM CLR 21/07 A3011 RMK AO2 T02130065
KCUH 172235Z AUTO 19009KT 10SM CLR 22/06 A3012 RMK AO2 T02160058
KCUH 172215Z AUTO 20008KT 10SM CLR 22/06 A3012 RMK AO2 T02190061
KCUH 172155Z AUTO 19008KT 10SM CLR 22/06 A3012 RMK AO2 T02230062
KCUH 172135Z AUTO 18010KT 10SM CLR 23/06 A3013 RMK AO2 T02260061
KCUH 172115Z AUTO 18010G15KT 10SM CLR 23/06 A3013 RMK AO2 T02260059
KCUH 172055Z AUTO 17006KT 10SM CLR 22/06 A3014 RMK AO2 T02240064
KCUH 172035Z AUTO 19011G14KT 160V220 10SM CLR 23/06 A3014 RMK AO2 T02250064
KCUH 172015Z AUTO 18010KT 10SM CLR 22/06 A3015 RMK AO2 T02190060
KCUH 171955Z AUTO 20012G15KT 10SM CLR 22/07 A3017 RMK AO2 T02210065
KCUH 171935Z AUTO 18008KT 10SM CLR 22/07 A3018 RMK AO2 T02220065
KCUH 171915Z AUTO 20011KT 10SM CLR 22/07 A3018 RMK AO2 T02180065
KCUH 171855Z AUTO 18008KT 10SM CLR 22/07 A3020 RMK AO2 T02160069
KCUH 171835Z AUTO 19009G17KT 10SM CLR 21/07 A3021 RMK AO2 T02110065
KCUH 171815Z AUTO 18009G16KT 10SM CLR 21/07 A3022 RMK AO2 T02080067
KCUH 171755Z AUTO 18007KT 10SM CLR 21/07 A3024 RMK AO2 T02080066 10208 20065
KCUH 171735Z AUTO 17008KT 10SM CLR 20/06 A3024 RMK AO2 T02020063
KCUH 171715Z AUTO 20014G17KT 10SM CLR 20/06 A3025 RMK AO2 T01980061
KCUH 171655Z AUTO 19009G16KT 140V210 10SM CLR 20/06 A3026 RMK AO2 T01960063
KCUH 171635Z AUTO 19012G15KT 10SM CLR 19/07 A3026 RMK AO2 T01860065
KCUH 171615Z AUTO 20011G15KT 10SM CLR 18/07 A3026 RMK AO2 T01780071
KCUH 171555Z AUTO 18012KT 10SM CLR 17/07 A3027 RMK AO2 T01660067
KCUH 171535Z AUTO 18009G14KT 10SM CLR 15/07 A3027 RMK AO2 T01540067
KCUH 171515Z AUTO 19009G14KT 10SM CLR 14/07 A3027 RMK AO2 T01430072
KCUH 171455Z AUTO 20008KT 10SM CLR 13/07 A3027 RMK AO2 T01300073
KCUH 171435Z AUTO 19008KT 10SM CLR 12/07 A3027 RMK AO2 T01200069
KCUH 171415Z AUTO 18004KT 10SM CLR 11/07 A3027 RMK AO2 T01110065
KCUH 171355Z AUTO 16004KT 10SM CLR 10/06 A3027 RMK AO2 T01020058
KCUH 171335Z AUTO 00000KT 10SM CLR 09/05 A3025 RMK AO2 T00910053
KCUH 171315Z AUTO 00000KT 10SM CLR 08/05 A3025 RMK AO2 T00820050
KCUH 171255Z AUTO 17003KT 10SM CLR 08/05 A3025 RMK AO2 T00770046
KCUH 171235Z AUTO 18003KT 10SM CLR 07/05 A3025 RMK AO2 T00740045
KCUH 171215Z AUTO 00000KT 10SM CLR 07/05 A3024 RMK AO2 T00680045
KCUH 171155Z AUTO 18004KT 10SM CLR 07/05 A3024 RMK AO2 T00680047 10082 20057
KCUH 171135Z AUTO 20004KT 10SM CLR 06/04 A3024 RMK AO2 T00610042
KCUH 171115Z AUTO 19004KT 10SM CLR 06/04 A3024 RMK AO2 T00640043
KCUH 171055Z AUTO 17004KT 10SM CLR 08/05 A3024 RMK AO2 T00820048
KCUH 171035Z AUTO 00000KT 10SM CLR 08/05 A3024 RMK AO2 T00790046
KCUH 171015Z AUTO 21003KT 10SM CLR 07/05 A3024 RMK AO2 T00720046
KCUH 170955Z AUTO 00000KT 10SM CLR 08/05 A3024 RMK AO2 T00780046
KCUH 170935Z AUTO 00000KT 10SM CLR 07/05 A3024 RMK AO2 T00660046
KCUH 170915Z AUTO 00000KT 10SM CLR 06/04 A3024 RMK AO2 T00630042
KCUH 170855Z AUTO 00000KT 10SM CLR 07/05 A3024 RMK AO2 T00660045
KCUH 170835Z AUTO 00000KT 10SM CLR 06/05 A3025 RMK AO2 T00600045
KCUH 170815Z AUTO 00000KT 10SM CLR 07/05 A3026 RMK AO2 T00720046
KCUH 170755Z AUTO 00000KT 10SM CLR 08/05 A3026 RMK AO2 T00770049
KCUH 170735Z AUTO 00000KT 10SM CLR 08/05 A3026 RMK AO2 T00780053
KCUH 170715Z AUTO 00000KT 10SM CLR 07/05 A3026 RMK AO2 T00660047
KCUH 170655Z AUTO 00000KT 10SM CLR 08/06 A3026 RMK AO2 T00760055
KCUH 170635Z AUTO 00000KT 10SM CLR 06/05 A3026 RMK AO2 T00610046
KCUH 170615Z AUTO 00000KT 10SM CLR 06/05 A3027 RMK AO2 T00610049
KCUH 170555Z AUTO 00000KT 10SM CLR 07/05 A3027 RMK AO2 T00660051 10146 20061 402050042
KCUH 170535Z AUTO 00000KT 10SM CLR 06/05 A3028 RMK AO2 T00640054
KCUH 170515Z AUTO 00000KT 10SM CLR 06/05 A3028 RMK AO2 T00610050
KCUH 170455Z AUTO 00000KT 10SM CLR 06/05 A3029 RMK AO2 T00640051
KCUH 170435Z AUTO 00000KT 10SM CLR 07/06 A3029 RMK AO2 T00720056
KCUH 170415Z AUTO 00000KT 10SM CLR 07/06 A3029 RMK AO2 T00690056
KCUH 170355Z AUTO 00000KT 10SM CLR 08/06 A3029 RMK AO2 T00750058
KCUH 170335Z AUTO 00000KT 10SM CLR 07/06 A3029 RMK AO2 T00740060
KCUH 170315Z AUTO 00000KT 10SM CLR 08/06 A3029 RMK AO2 T00750060
KCUH 170255Z AUTO 00000KT 10SM CLR 11/06 A3028 RMK AO2 T01070063
KCUH 170235Z AUTO 00000KT 10SM CLR 10/07 A3029 RMK AO2 T01000066
KCUH 170215Z AUTO 00000KT 10SM CLR 08/07 A3028 RMK AO2 T00820067
KCUH 170155Z AUTO 00000KT 10SM CLR 08/07 A3028 RMK AO2 T00830069
KCUH 170135Z AUTO 00000KT 10SM CLR 09/07 A3028 RMK AO2 T00900072
KCUH 170115Z AUTO 00000KT 10SM CLR 10/08 A3028 RMK AO2 T00950075
KCUH 170055Z AUTO 00000KT 10SM CLR 11/07 A3028 RMK AO2 T01140073
KCUH 170035Z AUTO 27003KT 10SM CLR 11/08 A3028 RMK AO2 T01090080
KCUH 170015Z AUTO 00000KT 10SM CLR 13/08 A3028 RMK AO2 T01280080
KCUH 162355Z AUTO 00000KT 10SM CLR 15/07 A3028 RMK AO2 T01480070 10205 20148
KCUH 162335Z AUTO 00000KT 10SM CLR 18/04 A3028 RMK AO2 T01830039
KCUH 162315Z AUTO 17004KT 10SM CLR 19/04 A3028 RMK AO2 T01900035
KCUH 162255Z AUTO 00000KT 10SM CLR 20/03 A3028 RMK AO2 T01950031
KCUH 162235Z AUTO 00000KT 10SM CLR 20/03 A3029 RMK AO2 T02000033
KCUH 162215Z AUTO 00000KT 10SM CLR 20/03 A3029 RMK AO2 T02020031
KCUH 162155Z AUTO 08003KT 10SM CLR 20/03 A3029 RMK AO2 T02010026
KCUH 162135Z AUTO 17003KT 10SM CLR 20/03 A3030 RMK AO2 T02040025
KCUH 162115Z AUTO 00000KT 10SM CLR 20/03 A3031 RMK AO2 T02020025
KCUH 162055Z AUTO 13004KT 10SM CLR 20/02 A3031 RMK AO2 T02030023
KCUH 162035Z AUTO 08004KT 10SM CLR 20/02 A3032 RMK AO2 T02000021
KCUH 162015Z AUTO 17003KT 10SM CLR 20/03 A3033 RMK AO2 T02030028
KCUH 161955Z AUTO 00000KT 10SM CLR 20/02 A3034 RMK AO2 T02020020
KCUH 161935Z AUTO 14004KT 10SM CLR 20/02 A3035 RMK AO2 T01990020